Time;durP1;ratioP1;P1;durP2;ratioP2;P2;SDS_P1;SDS_P2;PMS_P1;PMS_P2;Temp;Humidity;BMP_temperature;BMP_pressure;BME280_temperature;BME280_humidity;BME280_pressure;Samples;Min_cycle;Max_cycle;Signal;HPM_P1;HPM_P2
2020/12/27 00:00:11;;;;;;;8.45;5.03;;;;;;;-0.62;78.25;99813.65;1753662;81;21564;-70
2020/12/27 00:02:39;;;;;;;7.95;5.15;;;;;;;-0.63;78.12;99806.33;1754240;81;21625;-70
2020/12/27 00:05:08;;;;;;;7.37;4.72;;;;;;;-0.63;77.64;99799.83;1710291;82;21289;-70
2020/12/27 00:07:36;;;;;;;7.85;5.05;;;;;;;-0.69;77.40;99812.25;1733463;82;21170;-70
2020/12/27 00:10:05;;;;;;;6.92;5.12;;;;;;;-0.75;77.58;99803.00;1717606;83;21164;-70
2020/12/27 00:12:34;;;;;;;6.65;4.75;;;;;;;-0.82;77.66;99806.37;1729362;83;21334;-70
2020/12/27 00:15:03;;;;;;;8.23;5.08;;;;;;;-0.86;77.81;99812.63;1711981;83;21237;-70
2020/12/27 00:17:31;;;;;;;7.22;5.03;;;;;;;-0.93;77.87;99812.98;1731833;83;21325;-70
2020/12/27 00:19:59;;;;;;;8.33;5.37;;;;;;;-0.97;78.17;99813.59;1725936;83;21199;-70
2020/12/27 00:22:27;;;;;;;6.67;4.72;;;;;;;-0.94;78.49;99816.48;1732520;83;21152;-69
2020/12/27 00:24:54;;;;;;;7.75;5.25;;;;;;;-0.92;78.51;99818.08;1719035;83;21200;-71
2020/12/27 00:27:22;;;;;;;7.62;5.08;;;;;;;-0.87;78.48;99817.42;1728939;81;21155;-70
2020/12/27 00:29:49;;;;;;;7.80;5.25;;;;;;;-0.83;78.18;99812.46;1727880;83;21621;-70
2020/12/27 00:32:17;;;;;;;7.55;4.80;;;;;;;-0.79;78.37;99815.32;1723723;83;21604;-70
2020/12/27 00:34:47;;;;;;;6.90;5.20;;;;;;;-0.72;78.07;99817.62;1747464;82;21608;-70
2020/12/27 00:37:15;;;;;;;7.17;4.72;;;;;;;-0.71;77.85;99812.79;1707068;83;21329;-70
2020/12/27 00:39:43;;;;;;;7.25;4.80;;;;;;;-0.69;77.29;99826.55;1710546;83;21559;-70
2020/12/27 00:42:10;;;;;;;6.78;4.70;;;;;;;-0.69;77.50;99813.55;1724440;83;21204;-70
2020/12/27 00:44:40;;;;;;;8.00;5.45;;;;;;;-0.67;77.67;99825.58;1706780;83;21182;-70
2020/12/27 00:47:08;;;;;;;7.00;4.85;;;;;;;-0.62;77.52;99819.70;1723112;83;21235;-70
2020/12/27 00:49:36;;;;;;;7.62;5.40;;;;;;;-0.59;77.44;99822.14;1748500;82;21199;-70
2020/12/27 00:52:04;;;;;;;6.65;5.08;;;;;;;-0.52;77.37;99815.38;1727800;83;21195;-70
2020/12/27 00:54:32;;;;;;;6.60;5.08;;;;;;;-0.49;77.11;99815.20;1726725;83;21618;-71
2020/12/27 00:57:00;;;;;;;8.15;4.95;;;;;;;-0.44;76.59;99815.83;1689430;83;21164;-70
2020/12/27 00:59:28;;;;;;;6.10;4.55;;;;;;;-0.42;76.52;99819.19;1725383;83;21573;-70
2020/12/27 01:01:58;;;;;;;6.97;4.65;;;;;;;-0.43;76.14;99825.28;1706259;83;21633;-70
2020/12/27 01:04:45;;;;;;;6.45;4.45;;;;;;;-0.40;76.05;99819.95;1715062;83;21312;-70
2020/12/27 01:07:13;;;;;;;8.50;5.00;;;;;;;-0.42;76.26;99825.22;1736946;81;21160;-70
2020/12/27 01:09:42;;;;;;;6.95;4.85;;;;;;;-0.38;76.08;99829.81;1733199;83;21170;-70
2020/12/27 01:12:11;;;;;;;8.05;4.83;;;;;;;-0.38;76.11;99832.41;1733359;83;21317;-70
2020/12/27 01:14:38;;;;;;;8.08;5.72;;;;;;;-0.37;76.40;99821.11;1732632;83;21624;-71
2020/12/27 01:17:08;;;;;;;6.92;5.03;;;;;;;-0.32;75.89;99824.30;1722859;82;21144;-70
2020/12/27 01:19:36;;;;;;;8.15;4.67;;;;;;;-0.32;75.79;99825.60;1733867;81;21172;-70
2020/12/27 01:22:04;;;;;;;6.28;4.50;;;;;;;-0.29;75.70;99822.03;1713490;83;21192;-70
2020/12/27 01:24:36;;;;;;;7.90;5.20;;;;;;;-0.29;75.50;99827.23;1694536;83;21628;-70
2020/12/27 01:27:04;;;;;;;7.35;4.83;;;;;;;-0.28;75.76;99837.55;1710295;83;21309;-70
2020/12/27 01:29:32;;;;;;;6.72;4.90;;;;;;;-0.26;75.66;99837.48;1718973;83;21316;-71
2020/12/27 01:32:02;;;;;;;7.83;4.75;;;;;;;-0.25;75.45;99842.58;1714552;83;21583;-70
2020/12/27 01:34:31;;;;;;;6.53;4.87;;;;;;;-0.24;75.40;99841.68;1713707;83;21631;-70
2020/12/27 01:36:59;;;;;;;7.30;4.95;;;;;;;-0.26;75.29;99843.98;1706798;83;21320;-70
2020/12/27 01:39:27;;;;;;;6.42;5.00;;;;;;;-0.24;75.54;99841.68;1710818;83;21174;-70
2020/12/27 01:41:55;;;;;;;8.50;4.83;;;;;;;-0.23;75.43;99850.31;1727629;83;21183;-70
2020/12/27 01:44:24;;;;;;;6.92;5.15;;;;;;;-0.22;75.33;99854.14;1732627;83;21667;-70
2020/12/27 01:46:53;;;;;;;7.90;4.35;;;;;;;-0.23;75.47;99851.14;1744840;81;21152;-70
2020/12/27 01:49:22;;;;;;;8.60;4.90;;;;;;;-0.21;75.27;99857.58;1709167;83;21164;-70
2020/12/27 01:51:50;;;;;;;7.35;5.05;;;;;;;-0.18;75.39;99860.50;1733730;83;21652;-70
2020/12/27 01:54:20;;;;;;;8.10;4.87;;;;;;;-0.15;75.60;99849.49;1702272;83;21138;-70
2020/12/27 01:57:37;;;;;;;7.22;4.90;;;;;;;-0.05;75.46;99855.07;1800566;78;22932;-70
2020/12/27 02:00:05;;;;;;;9.40;5.15;;;;;;;-0.09;75.39;99854.38;1791769;80;21183;-69
2020/12/27 02:02:44;;;;;;;8.50;5.25;;;;;;;-0.08;75.32;99862.55;1744193;81;21180;-70
2020/12/27 02:05:13;;;;;;;8.05;5.12;;;;;;;-0.04;74.99;99865.84;1730235;82;21317;-70
2020/12/27 02:07:44;;;;;;;8.18;5.37;;;;;;;-0.07;74.74;99860.34;1718394;83;21636;-70
2020/12/27 02:10:51;;;;;;;7.85;5.15;;;;;;;-0.02;74.56;99872.66;1803824;78;23081;-71
2020/12/27 02:13:19;;;;;;;6.45;4.87;;;;;;;-0.11;75.01;99882.22;1795919;80;21211;-70
2020/12/27 02:15:49;;;;;;;5.65;4.87;;;;;;;-0.10;75.05;99868.28;1762275;81;21156;-70
2020/12/27 02:18:33;;;;;;;6.78;5.20;;;;;;;-0.10;75.01;99874.78;1731164;83;21204;-70
2020/12/27 02:21:02;;;;;;;6.62;4.92;;;;;;;-0.13;75.11;99876.69;1704265;83;21160;-70
2020/12/27 02:23:30;;;;;;;7.80;5.22;;;;;;;-0.14;75.30;99879.75;1714664;82;21195;-70
2020/12/27 02:26:06;;;;;;;8.40;5.28;;;;;;;-0.16;75.33;99883.36;1731265;83;21168;-70
2020/12/27 02:28:36;;;;;;;7.65;4.97;;;;;;;-0.14;75.55;99893.22;1704793;82;21175;-70
2020/12/27 02:31:06;;;;;;;7.87;5.00;;;;;;;-0.13;75.52;99898.35;1737910;81;21195;-70
2020/12/27 02:33:37;;;;;;;8.25;5.10;;;;;;;-0.11;75.59;99887.84;1749459;81;21140;-71
2020/12/27 02:36:09;;;;;;;7.78;5.22;;;;;;;-0.08;75.56;99878.61;1743718;81;21310;-70
2020/12/27 02:38:37;;;;;;;6.92;4.75;;;;;;;-0.05;75.52;99882.38;1728606;82;21635;-70
2020/12/27 02:41:16;;;;;;;6.37;4.70;;;;;;;0.00;75.17;99890.80;1755509;81;21246;-70
2020/12/27 02:44:03;;;;;;;6.17;3.98;;;;;;;0.01;75.15;99892.93;1735634;81;21611;-70
2020/12/27 02:46:32;;;;;;;6.40;4.78;;;;;;;0.00;74.82;99899.89;1734550;81;21147;-70
2020/12/27 02:49:29;;;;;;;7.42;5.03;;;;;;;0.05;74.86;99907.45;1796147;78;28534;-70
2020/12/27 02:52:01;;;;;;;6.37;4.35;;;;;;;0.08;74.75;99909.91;1787918;80;21140;-70
2020/12/27 02:54:29;;;;;;;7.22;4.45;;;;;;;0.16;74.37;99912.97;1771044;80;21175;-70
2020/12/27 02:56:57;;;;;;;6.08;4.50;;;;;;;0.15;73.74;99915.17;1798299;80;21588;-70
2020/12/27 02:59:25;;;;;;;5.85;4.42;;;;;;;0.12;73.86;99922.68;1744023;80;21151;-70
2020/12/27 03:01:54;;;;;;;7.05;4.70;;;;;;;0.15;73.85;99922.53;1769192;80;21148;-70
2020/12/27 03:04:26;;;;;;;6.33;4.80;;;;;;;0.15;74.07;99923.84;1770663;80;21190;-70
2020/12/27 03:06:56;;;;;;;5.87;4.53;;;;;;;0.19;74.09;99929.73;1762449;81;21191;-70
2020/12/27 03:09:26;;;;;;;6.15;4.42;;;;;;;0.20;73.89;99927.50;1721036;83;21184;-70
2020/12/27 03:12:04;;;;;;;12.03;4.97;;;;;;;0.21;73.42;99930.93;1719830;83;21167;-70
2020/12/27 03:14:32;;;;;;;5.78;4.40;;;;;;;0.21;73.56;99937.44;1720861;83;21187;-70
2020/12/27 03:17:19;;;;;;;7.15;4.65;;;;;;;0.21;73.72;99941.34;1755011;81;21184;-70
2020/12/27 03:19:54;;;;;;;6.97;4.60;;;;;;;0.23;73.62;99932.56;1720736;83;21186;-70
2020/12/27 03:22:30;;;;;;;5.62;4.33;;;;;;;0.25;73.56;99937.69;1693458;83;21159;-70
2020/12/27 03:24:59;;;;;;;9.05;5.08;;;;;;;0.23;73.51;99938.23;1706305;82;21301;-70
2020/12/27 03:27:27;;;;;;;7.00;4.78;;;;;;;0.25;73.42;99938.98;1719088;83;21906;-70
2020/12/27 03:29:55;;;;;;;5.17;4.30;;;;;;;0.24;73.45;99942.49;1744233;81;22224;-70
2020/12/27 03:32:25;;;;;;;5.65;4.17;;;;;;;0.25;73.42;99948.92;1728961;81;21278;-71
2020/12/27 03:34:52;;;;;;;7.37;4.40;;;;;;;0.25;73.46;99948.09;1724059;83;21666;-71
2020/12/27 03:37:20;;;;;;;4.67;4.03;;;;;;;0.19;73.02;99944.04;1761806;81;21592;-70
2020/12/27 03:39:58;;;;;;;5.33;4.12;;;;;;;0.19;73.25;99950.54;1739577;81;21143;-70
2020/12/27 03:42:44;;;;;;;6.33;4.17;;;;;;;0.18;73.22;99951.44;1717722;81;21156;-70
2020/12/27 03:45:13;;;;;;;6.30;4.55;;;;;;;0.21;73.40;99964.31;1740545;81;21335;-69
2020/12/27 03:47:59;;;;;;;7.67;4.10;;;;;;;0.19;73.02;99960.48;1753675;81;21316;-69
2020/12/27 03:50:28;;;;;;;7.37;4.37;;;;;;;0.17;73.30;99970.59;1758913;81;21187;-70
2020/12/27 03:52:57;;;;;;;5.87;4.12;;;;;;;0.19;73.43;99974.78;1721633;82;21171;-70
2020/12/27 03:55:34;;;;;;;5.65;4.15;;;;;;;0.22;73.47;99974.25;1707094;83;21160;-69
2020/12/27 03:58:30;;;;;;;6.47;4.85;;;;;;;0.27;73.18;99975.70;1909869;74;28021;-70
2020/12/27 04:01:01;;;;;;;5.08;3.87;;;;;;;0.28;73.00;99981.30;1868635;75;21577;-70
2020/12/27 04:03:31;;;;;;;6.95;4.75;;;;;;;0.31;72.91;99985.50;1900433;75;21156;-70
2020/12/27 04:06:01;;;;;;;5.53;4.22;;;;;;;0.30;72.85;99978.17;1823240;78;21135;-70
2020/12/27 04:08:30;;;;;;;5.30;3.83;;;;;;;0.34;72.84;99980.16;1815136;78;21152;-70
2020/12/27 04:10:58;;;;;;;6.75;4.10;;;;;;;0.38;72.68;99974.72;1803325;78;21160;-70
2020/12/27 04:13:26;;;;;;;7.15;4.10;;;;;;;0.40;72.63;99984.22;1805065;78;21598;-70
2020/12/27 04:15:56;;;;;;;5.92;4.30;;;;;;;0.40;72.70;99988.95;1799189;78;21112;-70
2020/12/27 04:18:25;;;;;;;6.28;4.17;;;;;;;0.43;72.69;99990.12;1801680;78;21164;-70
2020/12/27 04:21:14;;;;;;;7.58;4.17;;;;;;;0.43;72.60;99994.02;1802560;78;22615;-70
2020/12/27 04:23:44;;;;;;;6.60;4.53;;;;;;;0.44;72.56;99983.14;1813833;78;21273;-70
2020/12/27 04:26:18;;;;;;;6.22;4.30;;;;;;;0.43;72.64;99982.31;1800177;78;21289;-70
2020/12/27 04:28:49;;;;;;;5.97;4.50;;;;;;;0.44;72.72;99987.88;1826411;78;21270;-70
2020/12/27 04:31:22;;;;;;;5.70;4.67;;;;;;;0.48;72.64;99989.41;1808261;78;21180;-70
2020/12/27 04:33:53;;;;;;;4.80;3.62;;;;;;;0.48;72.39;100001.58;1817501;78;21139;-70
2020/12/27 04:36:25;;;;;;;6.53;3.98;;;;;;;0.48;72.06;100001.12;1816736;78;21170;-70
2020/12/27 04:38:53;;;;;;;5.78;4.40;;;;;;;0.48;72.16;100001.12;1823300;78;21313;-70
2020/12/27 04:41:21;;;;;;;6.45;4.53;;;;;;;0.47;72.19;99998.59;1823877;78;21584;-70
2020/12/27 04:43:51;;;;;;;7.35;3.62;;;;;;;0.50;72.23;100009.69;1784721;78;21628;-70
2020/12/27 04:46:19;;;;;;;6.08;4.15;;;;;;;0.49;72.21;100006.72;1805917;78;21164;-70
2020/12/27 04:48:53;;;;;;;6.28;4.28;;;;;;;0.47;72.49;100012.89;1747069;80;21286;-70
2020/12/27 04:51:22;;;;;;;8.55;4.05;;;;;;;0.47;72.56;100002.05;1795184;78;21699;-70
2020/12/27 04:54:26;;;;;;;5.53;4.30;;;;;;;0.53;72.55;100004.81;1810899;78;23082;-70
2020/12/27 04:56:57;;;;;;;6.30;4.60;;;;;;;0.45;72.31;100009.09;1779932;79;21546;-70
2020/12/27 04:59:26;;;;;;;7.22;4.33;;;;;;;0.38;72.45;100022.85;1794989;79;21176;-70
2020/12/27 05:01:55;;;;;;;7.58;4.58;;;;;;;0.35;72.68;100018.25;1737905;81;21203;-70
2020/12/27 05:04:28;;;;;;;5.85;4.67;;;;;;;0.37;72.76;100023.78;1671027;83;21180;-70
2020/12/27 05:07:00;;;;;;;7.10;4.47;;;;;;;0.37;72.69;100024.22;1733855;81;21164;-70
2020/12/27 05:09:35;;;;;;;6.70;4.83;;;;;;;0.37;72.96;100034.63;1712656;83;21193;-70
2020/12/27 05:12:03;;;;;;;7.25;4.72;;;;;;;0.40;72.77;100020.18;1751675;81;21184;-70
2020/12/27 05:14:31;;;;;;;7.03;5.20;;;;;;;0.41;72.79;100025.75;1716181;83;21608;-70
2020/12/27 05:16:59;;;;;;;5.83;4.60;;;;;;;0.44;72.93;100028.22;1702832;83;21728;-70
2020/12/27 05:19:29;;;;;;;12.10;5.33;;;;;;;0.46;72.83;100026.38;1696608;83;21179;-70
2020/12/27 05:22:09;;;;;;;9.28;4.78;;;;;;;0.47;72.79;100033.28;1697849;81;21608;-69
2020/12/27 05:24:39;;;;;;;7.77;4.87;;;;;;;0.49;72.80;100037.11;1707668;83;21176;-69
2020/12/27 05:27:15;;;;;;;5.85;4.08;;;;;;;0.48;72.55;100040.16;1736183;81;21124;-69
2020/12/27 05:29:46;;;;;;;7.83;4.90;;;;;;;0.45;72.84;100033.81;1705880;83;21157;-69
2020/12/27 05:32:18;;;;;;;7.90;4.62;;;;;;;0.47;73.01;100051.50;1739629;81;21160;-70
2020/12/27 05:35:11;;;;;;;10.35;5.67;;;;;;;0.49;72.94;100057.94;1660057;83;21639;-69
2020/12/27 05:37:59;;;;;;;7.97;5.10;;;;;;;0.48;73.03;100063.58;1746972;81;21187;-69
2020/12/27 05:40:44;;;;;;;8.88;5.15;;;;;;;0.48;72.94;100066.64;1682292;83;21183;-69
2020/12/27 05:43:15;;;;;;;8.83;5.33;;;;;;;0.47;73.12;100067.11;1739467;81;21147;-69
2020/12/27 05:45:44;;;;;;;7.33;5.30;;;;;;;0.47;73.25;100072.75;1682744;83;21172;-69
2020/12/27 05:48:12;;;;;;;8.50;5.37;;;;;;;0.45;73.56;100075.45;1659343;83;21140;-69
2020/12/27 05:50:41;;;;;;;7.67;5.62;;;;;;;0.46;73.88;100079.72;1701396;84;21599;-69
2020/12/27 05:53:21;;;;;;;7.40;5.20;;;;;;;0.47;73.78;100076.66;1705373;84;21597;-69
2020/12/27 05:55:52;;;;;;;9.08;5.90;;;;;;;0.43;73.73;100086.40;1760186;81;21604;-69
2020/12/27 05:58:22;;;;;;;8.48;5.10;;;;;;;0.41;73.73;100090.80;1758110;81;21561;-69
2020/12/27 06:00:57;;;;;;;8.68;5.72;;;;;;;0.37;73.98;100094.47;1696002;84;21311;-69
2020/12/27 06:03:29;;;;;;;8.98;5.55;;;;;;;0.38;74.11;100101.37;1748329;82;21620;-69
2020/12/27 06:06:10;;;;;;;9.88;5.78;;;;;;;0.40;74.30;100102.61;1748185;82;21153;-69
2020/12/27 06:09:04;;;;;;;8.75;5.58;;;;;;;0.43;74.33;100106.35;1747777;82;21145;-70
2020/12/27 06:11:45;;;;;;;9.90;5.83;;;;;;;0.47;74.33;100114.39;1655984;85;21172;-71
2020/12/27 06:14:35;;;;;;;11.67;5.43;;;;;;;0.50;74.16;100124.66;1656479;87;21172;-70
2020/12/27 06:17:44;;;;;;;11.68;6.50;;;;;;;0.47;74.14;100125.67;1727392;82;21287;-70
2020/12/27 06:20:15;;;;;;;9.58;6.15;;;;;;;0.45;74.27;100126.20;1743384;81;21549;-68
2020/12/27 06:22:44;;;;;;;10.72;6.25;;;;;;;0.42;74.47;100133.30;1716341;82;21168;-70
2020/12/27 06:25:47;;;;;;;11.83;6.12;;;;;;;0.48;74.53;100143.42;1804852;78;23143;-70
2020/12/27 06:28:16;;;;;;;11.28;6.37;;;;;;;0.42;74.66;100141.95;1780150;80;21321;-70
2020/12/27 06:31:08;;;;;;;10.10;6.75;;;;;;;0.43;74.61;100147.98;1697509;84;21262;-70
2020/12/27 06:34:06;;;;;;;10.30;6.00;;;;;;;0.47;74.69;100151.69;1809066;78;22920;-70
2020/12/27 06:36:38;;;;;;;10.82;6.00;;;;;;;0.42;74.58;100155.42;1764771;80;21305;-70
2020/12/27 06:39:34;;;;;;;11.00;6.78;;;;;;;0.46;74.95;100158.27;1779490;78;28199;-70
2020/12/27 06:42:18;;;;;;;10.50;6.87;;;;;;;0.53;74.86;100171.38;1746640;81;21183;-70
2020/12/27 06:44:59;;;;;;;9.08;6.25;;;;;;;0.62;74.49;100176.59;1727398;83;21327;-70
2020/12/27 06:47:53;;;;;;;8.33;6.05;;;;;;;0.66;74.21;100183.36;1688389;84;21609;-70
2020/12/27 06:50:52;;;;;;;11.33;7.12;;;;;;;0.72;74.06;100179.98;1915173;74;22199;-70
2020/12/27 06:53:45;;;;;;;14.45;7.80;;;;;;;0.70;74.05;100178.39;1823202;78;21569;-70
2020/12/27 06:56:15;;;;;;;8.08;5.47;;;;;;;0.72;74.08;100184.36;1806440;78;21218;-70
2020/12/27 06:59:01;;;;;;;11.12;7.35;;;;;;;0.71;73.81;100172.25;1838813;77;21156;-70
2020/12/27 07:01:30;;;;;;;12.45;7.30;;;;;;;0.70;73.81;100184.89;1846870;77;21176;-70
2020/12/27 07:04:18;;;;;;;12.45;7.03;;;;;;;0.71;73.82;100185.27;1791496;79;21159;-70
2020/12/27 07:06:48;;;;;;;9.60;6.75;;;;;;;0.72;73.59;100183.06;1824267;78;21219;-69
2020/12/27 07:09:23;;;;;;;24.55;8.03;;;;;;;0.73;73.70;100184.73;1803721;78;21282;-70
2020/12/27 07:12:06;;;;;;;10.15;7.35;;;;;;;0.74;73.59;100186.43;1806870;78;21192;-70
2020/12/27 07:14:42;;;;;;;10.70;7.00;;;;;;;0.78;73.49;100177.55;1803185;78;21180;-69
2020/12/27 07:17:12;;;;;;;13.08;7.60;;;;;;;0.77;73.47;100175.87;1794272;78;21194;-69
2020/12/27 07:19:40;;;;;;;12.90;7.58;;;;;;;0.80;73.32;100183.52;1783467;77;21160;-70
2020/12/27 07:22:10;;;;;;;11.83;6.95;;;;;;;0.84;73.22;100182.92;1795433;78;21108;-69
2020/12/27 07:24:39;;;;;;;12.03;8.43;;;;;;;0.84;73.10;100179.87;1812568;78;21158;-69
2020/12/27 07:27:09;;;;;;;15.15;8.28;;;;;;;0.88;73.08;100184.45;1795139;78;21576;-70
2020/12/27 07:29:37;;;;;;;14.87;8.83;;;;;;;0.91;73.02;100189.05;1846775;77;21306;-69
2020/12/27 07:32:04;;;;;;;15.80;8.98;;;;;;;0.94;72.91;100201.94;1800142;78;21597;-70
2020/12/27 07:34:32;;;;;;;12.93;8.38;;;;;;;0.98;72.88;100200.03;1813843;78;21175;-69
2020/12/27 07:37:04;;;;;;;15.53;8.38;;;;;;;1.04;72.88;100189.78;1814069;78;21147;-69
2020/12/27 07:39:57;;;;;;;13.30;8.95;;;;;;;1.08;72.50;100195.22;1802986;78;21709;-70
2020/12/27 07:42:28;;;;;;;13.40;8.53;;;;;;;1.11;72.50;100198.98;1807770;78;21306;-71
2020/12/27 07:44:58;;;;;;;15.58;9.28;;;;;;;1.16;72.28;100194.39;1785976;78;21123;-70
2020/12/27 07:47:27;;;;;;;18.00;8.93;;;;;;;1.22;72.19;100202.38;1753646;80;21121;-70
2020/12/27 07:50:16;;;;;;;14.35;8.60;;;;;;;1.26;71.90;100198.69;1740724;81;21135;-70
2020/12/27 07:52:59;;;;;;;16.73;9.05;;;;;;;1.31;71.70;100208.40;1785571;80;21171;-70
2020/12/27 07:55:34;;;;;;;14.60;8.15;;;;;;;1.34;71.55;100204.35;1797410;79;21171;-70
2020/12/27 07:58:04;;;;;;;14.60;8.50;;;;;;;1.32;71.54;100208.33;1751680;79;21281;-70
2020/12/27 08:00:39;;;;;;;15.28;8.73;;;;;;;1.32;71.52;100209.63;1779410;79;21175;-70
2020/12/27 08:03:08;;;;;;;13.08;8.78;;;;;;;1.35;71.43;100206.05;1773950;80;21650;-70
2020/12/27 08:05:40;;;;;;;13.43;8.75;;;;;;;1.36;71.32;100212.46;1766238;79;21167;-70
2020/12/27 08:08:12;;;;;;;12.75;8.90;;;;;;;1.36;71.28;100220.28;1794798;79;21143;-70
2020/12/27 08:10:40;;;;;;;10.98;8.20;;;;;;;1.40;71.46;100219.67;1769497;80;21572;-70
2020/12/27 08:13:08;;;;;;;13.70;8.30;;;;;;;1.45;71.17;100216.85;1794355;79;21608;-70
2020/12/27 08:15:38;;;;;;;14.87;8.08;;;;;;;1.45;70.50;100232.02;1792324;80;21151;-70
2020/12/27 08:18:10;;;;;;;14.33;7.95;;;;;;;1.42;70.29;100235.23;1758480;79;21318;-70
2020/12/27 08:20:48;;;;;;;13.08;8.43;;;;;;;1.39;70.65;100236.25;1748787;80;21590;-70
2020/12/27 08:23:17;;;;;;;13.85;7.50;;;;;;;1.42;70.79;100243.06;1789323;79;21309;-70
2020/12/27 08:25:45;;;;;;;12.45;8.03;;;;;;;1.44;70.75;100249.91;1791664;79;21167;-70
2020/12/27 08:28:15;;;;;;;12.78;8.00;;;;;;;1.46;70.42;100249.36;1781239;79;21175;-71
2020/12/27 08:30:46;;;;;;;14.28;7.80;;;;;;;1.48;70.07;100242.77;1786377;79;21187;-70
2020/12/27 08:33:17;;;;;;;11.53;7.33;;;;;;;1.49;70.09;100249.66;1798851;79;21333;-69
2020/12/27 08:35:47;;;;;;;10.05;6.97;;;;;;;1.49;70.14;100247.05;1768267;79;21273;-70
2020/12/27 08:38:50;;;;;;;12.58;7.40;;;;;;;1.52;70.34;100246.91;1786561;79;21163;-70
2020/12/27 08:41:22;;;;;;;14.28;7.67;;;;;;;1.57;69.97;100247.50;1781963;79;21544;-69
2020/12/27 08:44:04;;;;;;;12.65;7.80;;;;;;;1.60;69.99;100246.52;1786483;79;21179;-70
2020/12/27 08:46:35;;;;;;;11.53;7.72;;;;;;;1.68;69.86;100249.58;1791274;79;21222;-70
2020/12/27 08:49:31;;;;;;;15.95;8.80;;;;;;;1.72;69.78;100241.54;1754140;79;21614;-70
2020/12/27 08:52:05;;;;;;;12.88;8.70;;;;;;;1.82;69.37;100243.68;1781756;79;21164;-69
2020/12/27 08:54:34;;;;;;;13.90;9.03;;;;;;;1.88;69.14;100236.36;1794762;79;21310;-70
2020/12/27 08:57:04;;;;;;;16.45;10.13;;;;;;;1.92;68.47;100237.05;1773335;79;21158;-68
2020/12/27 08:59:31;;;;;;;15.43;10.05;;;;;;;1.99;68.49;100232.38;1751380;80;21587;-71
2020/12/27 09:02:09;;;;;;;14.38;9.18;;;;;;;2.25;68.37;100225.78;1773337;80;21166;-71
2020/12/27 09:04:37;;;;;;;13.20;9.40;;;;;;;2.78;67.42;100223.78;1781725;79;21160;-71
2020/12/27 09:07:06;;;;;;;16.77;9.83;;;;;;;3.57;65.74;100210.52;1745878;79;21166;-70
2020/12/27 09:09:34;;;;;;;12.78;9.03;;;;;;;4.40;63.72;100212.06;1785046;79;21170;-70
2020/12/27 09:12:09;;;;;;;15.83;9.83;;;;;;;5.28;61.09;100213.02;1792163;79;21166;-71
2020/12/27 09:14:37;;;;;;;14.18;9.08;;;;;;;6.48;57.69;100208.79;1790752;79;21174;-70
2020/12/27 09:17:12;;;;;;;11.95;8.23;;;;;;;7.45;54.04;100202.22;1791270;79;21163;-70
2020/12/27 09:19:46;;;;;;;11.57;7.95;;;;;;;8.17;51.66;100197.99;1785722;79;21596;-69
2020/12/27 09:22:14;;;;;;;13.35;8.65;;;;;;;9.22;49.11;100208.97;1791260;79;21128;-71
2020/12/27 09:24:42;;;;;;;13.00;8.13;;;;;;;10.62;45.17;100205.02;1777241;79;21194;-70
2020/12/27 09:27:11;;;;;;;14.45;8.40;;;;;;;12.02;42.64;100194.08;1786400;79;21615;-70
2020/12/27 09:29:38;;;;;;;14.68;8.95;;;;;;;13.35;39.85;100192.26;1791176;79;21293;-69
2020/12/27 09:32:13;;;;;;;13.70;8.43;;;;;;;14.13;37.29;100183.94;1773340;79;21296;-71
2020/12/27 09:34:41;;;;;;;10.65;8.03;;;;;;;14.51;36.21;100187.94;1785013;79;21151;-70
2020/12/27 09:37:17;;;;;;;9.30;6.75;;;;;;;15.18;34.65;100187.08;1749657;80;21333;-69
2020/12/27 09:39:58;;;;;;;10.00;6.87;;;;;;;15.95;32.70;100181.88;1784521;79;21163;-71
2020/12/27 09:42:29;;;;;;;7.15;6.12;;;;;;;16.71;30.70;100191.06;1786451;79;21150;-70
2020/12/27 09:44:56;;;;;;;10.23;5.85;;;;;;;17.28;28.28;100191.20;1781522;80;21195;-70
2020/12/27 09:47:26;;;;;;;5.78;4.20;;;;;;;17.55;28.02;100188.47;1788859;79;21592;-71
2020/12/27 09:50:06;;;;;;;2.90;2.70;;;;;;;17.77;26.24;100189.95;1763283;80;21132;-70
2020/12/27 09:52:44;;;;;;;3.90;2.35;;;;;;;17.73;25.24;100187.30;1776472;79;21151;-72
2020/12/27 09:55:14;;;;;;;5.60;1.90;;;;;;;17.83;25.42;100184.69;1795160;79;21293;-71
2020/12/27 09:57:42;;;;;;;2.80;1.57;;;;;;;17.81;24.32;100184.55;1790104;80;21158;-71
2020/12/27 10:00:10;;;;;;;1.95;1.20;;;;;;;17.03;24.61;100195.91;1796611;80;21293;-71
2020/12/27 10:02:38;;;;;;;1.40;1.30;;;;;;;16.11;25.62;100190.66;1760556;80;21606;-71
2020/12/27 10:05:10;;;;;;;2.50;0.90;;;;;;;14.08;27.12;100206.18;1780549;79;21155;-71
2020/12/27 10:07:39;;;;;;;1.05;1.00;;;;;;;14.08;27.12;100206.18;1778337;79;21742;-69
2020/12/27 10:10:09;;;;;;;1.17;1.07;;;;;;;13.24;28.18;100212.35;1790508;80;21156;-71
2020/12/27 10:12:39;;;;;;;2.10;1.75;;;;;;;12.33;28.89;100206.59;1798818;79;21616;-71
2020/12/27 10:15:08;;;;;;;2.22;1.80;;;;;;;11.34;30.44;100214.89;1773214;80;21163;-72
2020/12/27 10:17:36;;;;;;;2.08;1.90;;;;;;;10.61;31.60;100211.75;1784498;79;21203;-70
2020/12/27 10:20:10;;;;;;;3.33;1.70;;;;;;;9.93;32.90;100204.83;1777574;79;21170;-70
2020/12/27 10:22:35;;;;;;;2.83;2.50;;;;;;;9.23;34.37;100216.39;1793604;79;21278;-71
2020/12/27 10:25:05;;;;;;;3.62;2.35;;;;;;;8.64;35.19;100218.48;1782699;79;21647;-71
2020/12/27 10:27:32;;;;;;;6.35;3.17;;;;;;;8.19;36.34;100215.83;1752364;79;21301;-71
2020/12/27 10:30:02;;;;;;;4.15;3.17;;;;;;;7.77;37.47;100218.20;1788519;79;21615;-71
2020/12/27 10:32:30;;;;;;;2.90;2.20;;;;;;;7.43;38.40;100215.97;1780530;79;21159;-70
2020/12/27 10:34:59;;;;;;;1.85;1.55;;;;;;;7.05;38.72;100217.00;1793938;80;21156;-71
2020/12/27 10:37:26;;;;;;;2.67;1.72;;;;;;;6.74;39.24;100213.50;1747782;80;22045;-70
2020/12/27 10:39:54;;;;;;;2.20;1.98;;;;;;;6.46;39.74;100210.69;1799234;80;21148;-69
2020/12/27 10:42:22;;;;;;;3.92;2.20;;;;;;;6.16;40.68;100209.75;1794939;79;21584;-72
2020/12/27 10:44:50;;;;;;;3.00;2.65;;;;;;;5.85;41.26;100214.44;1786285;79;21163;-70
2020/12/27 10:47:18;;;;;;;3.92;2.83;;;;;;;5.71;42.20;100217.19;1790766;79;21171;-69
2020/12/27 10:49:45;;;;;;;4.15;2.90;;;;;;;5.58;42.81;100215.85;1780145;79;21123;-69
2020/12/27 10:52:13;;;;;;;4.60;3.15;;;;;;;5.41;43.27;100200.77;1786311;80;21151;-72
2020/12/27 10:54:41;;;;;;;4.33;3.02;;;;;;;5.32;43.71;100200.54;1758650;80;21293;-70
2020/12/27 10:57:09;;;;;;;3.17;2.70;;;;;;;5.14;44.21;100206.03;1791758;79;21253;-69
2020/12/27 10:59:37;;;;;;;5.78;2.90;;;;;;;4.96;44.64;100194.16;1755435;79;21190;-70
2020/12/27 11:02:04;;;;;;;4.15;3.15;;;;;;;5.23;45.19;100192.32;1773521;79;21231;-70
2020/12/27 11:04:32;;;;;;;5.75;3.22;;;;;;;5.64;44.51;100186.09;1764245;79;21159;-71
2020/12/27 11:07:01;;;;;;;4.60;3.60;;;;;;;5.85;44.40;100190.81;1793295;79;21179;-71
2020/12/27 11:09:28;;;;;;;2.90;2.22;;;;;;;6.07;44.18;100181.50;1753434;79;21575;-70
2020/12/27 11:11:57;;;;;;;1.30;1.20;;;;;;;6.45;41.97;100174.01;1784671;79;21726;-71
2020/12/27 11:14:24;;;;;;;1.47;1.30;;;;;;;6.57;40.27;100191.05;1778122;79;21130;-72
2020/12/27 11:16:51;;;;;;;1.60;1.10;;;;;;;6.40;40.10;100185.69;1773239;79;21651;-69
2020/12/27 11:19:19;;;;;;;2.00;1.62;;;;;;;6.19;40.19;100187.19;1794455;79;21517;-70
2020/12/27 11:21:47;;;;;;;1.20;1.10;;;;;;;5.95;40.69;100186.66;1776841;79;21222;-69
2020/12/27 11:24:15;;;;;;;1.60;1.50;;;;;;;5.82;40.83;100189.73;1783402;79;21179;-72
2020/12/27 11:26:42;;;;;;;3.37;1.67;;;;;;;5.59;40.94;100196.52;1775618;79;21151;-71
2020/12/27 11:29:11;;;;;;;3.05;1.65;;;;;;;5.31;41.80;100196.22;1773172;79;21146;-71
2020/12/27 11:31:40;;;;;;;2.20;2.00;;;;;;;5.13;42.63;100191.27;1781544;79;21175;-70
2020/12/27 11:34:08;;;;;;;2.22;2.02;;;;;;;4.98;43.31;100197.03;1748717;79;21603;-72
2020/12/27 11:36:37;;;;;;;2.52;2.33;;;;;;;4.85;43.96;100194.36;1781872;79;21571;-71
2020/12/27 11:39:05;;;;;;;2.90;2.50;;;;;;;4.71;44.41;100194.39;1785788;79;21584;-69
2020/12/27 11:41:35;;;;;;;2.50;2.30;;;;;;;4.54;44.57;100194.16;1772172;80;21265;-70
2020/12/27 11:44:02;;;;;;;2.50;2.30;;;;;;;4.36;45.14;100193.56;1747594;80;21316;-72
2020/12/27 11:46:30;;;;;;;3.92;2.40;;;;;;;4.35;45.72;100202.34;1786326;79;21297;-70
2020/12/27 11:48:58;;;;;;;3.62;2.70;;;;;;;4.48;46.09;100195.87;1786991;79;21160;-71
2020/12/27 11:51:25;;;;;;;3.00;2.45;;;;;;;4.45;46.54;100196.05;1778993;79;21171;-70
2020/12/27 11:53:53;;;;;;;2.65;2.35;;;;;;;4.26;46.55;100192.44;1773349;79;21582;-71
2020/12/27 11:56:20;;;;;;;2.90;2.60;;;;;;;4.09;46.59;100193.00;1786511;79;21203;-70